sensor_id;sensor_type;location;lat;lon;timestamp;pressure;altitude;pressure_sealevel;temperature;humidity
1832;BME280;1680;48.106;11.708;2023-07-13T00:01:53;95485.94;;;20.27;100.00
1832;BME280;1680;48.106;11.708;2023-07-13T00:04:23;95485.81;;;20.37;100.00
1832;BME280;1680;48.106;11.708;2023-07-13T00:06:51;95481.03;;;20.34;100.00
1832;BME280;1680;48.106;11.708;2023-07-13T00:09:20;95476.34;;;20.26;100.00
1832;BME280;1680;48.106;11.708;2023-07-13T00:11:51;95452.16;;;19.99;100.00
1832;BME280;1680;48.106;11.708;2023-07-13T00:14:19;95475.78;;;20.29;100.00
1832;BME280;1680;48.106;11.708;2023-07-13T00:16:47;95471.28;;;20.25;100.00
1832;BME280;1680;48.106;11.708;2023-07-13T00:19:14;95470.50;;;20.24;100.00
1832;BME280;1680;48.106;11.708;2023-07-13T00:21:42;95463.72;;;20.13;100.00
1832;BME280;1680;48.106;11.708;2023-07-13T00:24:12;95486.03;;;20.17;100.00
1832;BME280;1680;48.106;11.708;2023-07-13T00:26:42;95491.31;;;20.22;100.00
1832;BME280;1680;48.106;11.708;2023-07-13T00:29:11;95490.78;;;20.20;100.00
1832;BME280;1680;48.106;11.708;2023-07-13T00:31:39;95486.72;;;20.28;100.00
1832;BME280;1680;48.106;11.708;2023-07-13T00:34:06;95486.03;;;20.17;100.00
1832;BME280;1680;48.106;11.708;2023-07-13T00:36:33;95492.16;;;20.18;100.00
1832;BME280;1680;48.106;11.708;2023-07-13T00:39:00;95497.53;;;20.13;100.00
1832;BME280;1680;48.106;11.708;2023-07-13T00:41:29;95502.13;;;20.07;100.00
1832;BME280;1680;48.106;11.708;2023-07-13T00:43:58;95499.44;;;20.07;100.00
1832;BME280;1680;48.106;11.708;2023-07-13T00:46:27;95510.84;;;20.13;100.00
1832;BME280;1680;48.106;11.708;2023-07-13T00:48:56;95507.41;;;20.12;100.00
1832;BME280;1680;48.106;11.708;2023-07-13T00:51:29;95464.22;;;19.87;100.00
1832;BME280;1680;48.106;11.708;2023-07-13T00:53:59;95502.13;;;20.07;100.00
1832;BME280;1680;48.106;11.708;2023-07-13T00:56:27;95499.44;;;20.07;100.00
1832;BME280;1680;48.106;11.708;2023-07-13T00:58:58;95499.50;;;20.02;100.00
1832;BME280;1680;48.106;11.708;2023-07-13T01:01:26;95495.09;;;19.88;100.00
1832;BME280;1680;48.106;11.708;2023-07-13T01:03:53;95493.59;;;20.05;100.00
1832;BME280;1680;48.106;11.708;2023-07-13T01:06:22;95485.81;;;20.14;100.00
1832;BME280;1680;48.106;11.708;2023-07-13T01:08:49;95480.63;;;19.99;100.00
1832;BME280;1680;48.106;11.708;2023-07-13T01:11:19;95479.31;;;19.96;100.00
1832;BME280;1680;48.106;11.708;2023-07-13T01:13:47;95478.19;;;20.02;100.00
1832;BME280;1680;48.106;11.708;2023-07-13T01:16:21;95474.72;;;20.07;100.00
1832;BME280;1680;48.106;11.708;2023-07-13T01:18:49;95465.47;;;19.99;100.00
1832;BME280;1680;48.106;11.708;2023-07-13T01:21:18;95463.06;;;19.98;100.00
1832;BME280;1680;48.106;11.708;2023-07-13T01:23:45;95463.66;;;19.90;100.00
1832;BME280;1680;48.106;11.708;2023-07-13T01:26:13;95446.31;;;19.92;100.00
1832;BME280;1680;48.106;11.708;2023-07-13T01:28:40;95440.50;;;19.90;100.00
1832;BME280;1680;48.106;11.708;2023-07-13T01:31:08;95435.69;;;19.92;100.00
1832;BME280;1680;48.106;11.708;2023-07-13T01:33:37;95440.03;;;19.83;100.00
1832;BME280;1680;48.106;11.708;2023-07-13T01:36:05;95436.56;;;19.83;100.00
1832;BME280;1680;48.106;11.708;2023-07-13T01:38:34;95432.22;;;19.68;100.00
1832;BME280;1680;48.106;11.708;2023-07-13T01:41:02;95428.97;;;19.71;100.00
1832;BME280;1680;48.106;11.708;2023-07-13T01:43:30;95430.63;;;19.67;100.00
1832;BME280;1680;48.106;11.708;2023-07-13T01:45:58;95439.59;;;19.71;100.00
1832;BME280;1680;48.106;11.708;2023-07-13T01:48:25;95439.13;;;19.69;100.00
1832;BME280;1680;48.106;11.708;2023-07-13T01:50:52;95447.09;;;19.69;100.00
1832;BME280;1680;48.106;11.708;2023-07-13T01:53:19;95455.91;;;19.65;100.00
1832;BME280;1680;48.106;11.708;2023-07-13T01:55:48;95464.63;;;19.70;100.00
1832;BME280;1680;48.106;11.708;2023-07-13T01:58:15;95461.94;;;19.75;100.00
1832;BME280;1680;48.106;11.708;2023-07-13T02:00:43;95468.13;;;19.66;100.00
1832;BME280;1680;48.106;11.708;2023-07-13T02:03:10;95470.47;;;19.72;100.00
1832;BME280;1680;48.106;11.708;2023-07-13T02:05:39;95466.28;;;19.66;100.00
1832;BME280;1680;48.106;11.708;2023-07-13T02:08:06;95479.50;;;19.76;100.00
1832;BME280;1680;48.106;11.708;2023-07-13T02:10:34;95477.25;;;19.60;100.00
1832;BME280;1680;48.106;11.708;2023-07-13T02:13:04;95475.13;;;19.57;100.00
1832;BME280;1680;48.106;11.708;2023-07-13T02:15:31;95444.13;;;19.43;100.00
1832;BME280;1680;48.106;11.708;2023-07-13T02:17:58;95481.97;;;19.68;100.00
1832;BME280;1680;48.106;11.708;2023-07-13T02:20:26;95486.53;;;19.62;100.00
1832;BME280;1680;48.106;11.708;2023-07-13T02:22:53;95474.81;;;19.63;100.00
1832;BME280;1680;48.106;11.708;2023-07-13T02:25:20;95483.34;;;19.60;100.00
1832;BME280;1680;48.106;11.708;2023-07-13T02:27:48;95482.00;;;19.63;100.00
1832;BME280;1680;48.106;11.708;2023-07-13T02:30:16;95482.06;;;19.58;100.00
1832;BME280;1680;48.106;11.708;2023-07-13T02:32:43;95486.81;;;19.61;100.00
1832;BME280;1680;48.106;11.708;2023-07-13T02:35:11;95494.28;;;19.59;100.00
1832;BME280;1680;48.106;11.708;2023-07-13T02:37:38;95487.09;;;19.59;100.00
1832;BME280;1680;48.106;11.708;2023-07-13T02:40:07;95495.06;;;19.59;100.00
1832;BME280;1680;48.106;11.708;2023-07-13T02:42:35;95497.47;;;19.61;100.00
1832;BME280;1680;48.106;11.708;2023-07-13T02:45:02;95509.44;;;19.58;100.00
1832;BME280;1680;48.106;11.708;2023-07-13T02:47:31;95464.97;;;19.31;100.00
1832;BME280;1680;48.106;11.708;2023-07-13T02:49:59;95514.72;;;19.63;100.00
1832;BME280;1680;48.106;11.708;2023-07-13T02:52:26;95510.78;;;19.61;100.00
1832;BME280;1680;48.106;11.708;2023-07-13T02:54:53;95523.28;;;19.60;100.00
1832;BME280;1680;48.106;11.708;2023-07-13T02:57:21;95531.25;;;19.60;100.00
1832;BME280;1680;48.106;11.708;2023-07-13T02:59:48;95537.13;;;19.57;100.00
1832;BME280;1680;48.106;11.708;2023-07-13T03:02:16;95534.97;;;19.59;100.00
1832;BME280;1680;48.106;11.708;2023-07-13T03:04:44;95531.78;;;19.62;100.00
1832;BME280;1680;48.106;11.708;2023-07-13T03:07:12;95535.50;;;19.61;100.00
1832;BME280;1680;48.106;11.708;2023-07-13T03:09:39;95532.31;;;19.59;100.00
1832;BME280;1680;48.106;11.708;2023-07-13T03:12:07;95540.28;;;19.64;100.00
1832;BME280;1680;48.106;11.708;2023-07-13T03:14:34;95537.63;;;19.59;100.00
1832;BME280;1680;48.106;11.708;2023-07-13T03:17:02;95532.09;;;19.56;100.00
1832;BME280;1680;48.106;11.708;2023-07-13T03:19:29;95515.91;;;19.52;100.00
1832;BME280;1680;48.106;11.708;2023-07-13T03:21:58;95526.53;;;19.52;100.00
1832;BME280;1680;48.106;11.708;2023-07-13T03:24:25;95539.22;;;19.60;100.00
1832;BME280;1680;48.106;11.708;2023-07-13T03:26:52;95561.22;;;19.38;100.00
1832;BME280;1680;48.106;11.708;2023-07-13T03:29:20;95541.53;;;19.39;100.00
1832;BME280;1680;48.106;11.708;2023-07-13T03:31:48;95551.75;;;19.22;100.00
1832;BME280;1680;48.106;11.708;2023-07-13T03:34:15;95552.81;;;19.11;100.00
1832;BME280;1680;48.106;11.708;2023-07-13T03:36:43;95559.22;;;19.10;100.00
1832;BME280;1680;48.106;11.708;2023-07-13T03:39:12;95553.13;;;19.04;100.00
1832;BME280;1680;48.106;11.708;2023-07-13T03:41:39;95558.19;;;19.06;100.00
1832;BME280;1680;48.106;11.708;2023-07-13T03:44:07;95564.31;;;19.01;100.00
1832;BME280;1680;48.106;11.708;2023-07-13T03:46:34;95565.41;;;19.00;100.00
1832;BME280;1680;48.106;11.708;2023-07-13T03:49:01;95576.50;;;19.07;100.00
1832;BME280;1680;48.106;11.708;2023-07-13T03:51:29;95562.75;;;18.95;100.00
1832;BME280;1680;48.106;11.708;2023-07-13T03:53:56;95566.69;;;19.03;100.00
1832;BME280;1680;48.106;11.708;2023-07-13T03:56:25;95561.75;;;18.81;100.00
1832;BME280;1680;48.106;11.708;2023-07-13T03:58:52;95573.13;;;18.92;100.00
1832;BME280;1680;48.106;11.708;2023-07-13T04:01:22;95575.81;;;18.82;100.00
1832;BME280;1680;48.106;11.708;2023-07-13T04:03:50;95568.13;;;18.85;100.00
1832;BME280;1680;48.106;11.708;2023-07-13T04:06:20;95572.13;;;18.78;100.00
1832;BME280;1680;48.106;11.708;2023-07-13T04:08:50;95581.13;;;18.87;100.00
1832;BME280;1680;48.106;11.708;2023-07-13T04:11:19;95571.06;;;18.79;100.00
1832;BME280;1680;48.106;11.708;2023-07-13T04:13:48;95573.44;;;18.85;100.00
1832;BME280;1680;48.106;11.708;2023-07-13T04:16:16;95572.03;;;18.98;100.00
1832;BME280;1680;48.106;11.708;2023-07-13T04:18:45;95573.69;;;18.89;100.00
1832;BME280;1680;48.106;11.708;2023-07-13T04:21:12;95554.91;;;18.70;100.00
1832;BME280;1680;48.106;11.708;2023-07-13T04:23:40;95570.50;;;18.82;100.00
1832;BME280;1680;48.106;11.708;2023-07-13T04:26:07;95574.75;;;18.83;100.00
1832;BME280;1680;48.106;11.708;2023-07-13T04:28:35;95590.97;;;18.81;100.00
1832;BME280;1680;48.106;11.708;2023-07-13T04:31:03;95589.63;;;18.84;100.00
1832;BME280;1680;48.106;11.708;2023-07-13T04:33:31;95572.09;;;18.88;100.00
1832;BME280;1680;48.106;11.708;2023-07-13T04:35:58;95555.69;;;18.71;100.00
1832;BME280;1680;48.106;11.708;2023-07-13T04:38:29;95583.53;;;18.78;100.00
1832;BME280;1680;48.106;11.708;2023-07-13T04:40:58;95584.63;;;18.77;100.00
1832;BME280;1680;48.106;11.708;2023-07-13T04:43:25;95582.72;;;18.83;100.00
1832;BME280;1680;48.106;11.708;2023-07-13T04:45:53;95587.75;;;18.94;100.00
1832;BME280;1680;48.106;11.708;2023-07-13T04:48:22;95588.81;;;18.88;100.00
1832;BME280;1680;48.106;11.708;2023-07-13T04:50:54;95578.50;;;18.77;100.00
1832;BME280;1680;48.106;11.708;2023-07-13T04:53:22;95577.69;;;18.81;100.00
1832;BME280;1680;48.106;11.708;2023-07-13T04:55:49;95596.00;;;18.83;100.00
1832;BME280;1680;48.106;11.708;2023-07-13T04:58:17;95587.22;;;18.92;100.00
1832;BME280;1680;48.106;11.708;2023-07-13T05:00:44;95600.72;;;19.06;100.00
1832;BME280;1680;48.106;11.708;2023-07-13T05:03:11;95600.19;;;19.09;100.00
1832;BME280;1680;48.106;11.708;2023-07-13T05:05:40;95607.63;;;19.07;100.00
1832;BME280;1680;48.106;11.708;2023-07-13T05:08:07;95619.84;;;19.08;100.00
1832;BME280;1680;48.106;11.708;2023-07-13T05:10:35;95616.66;;;19.06;100.00
1832;BME280;1680;48.106;11.708;2023-07-13T05:13:02;95617.97;;;19.08;100.00
1832;BME280;1680;48.106;11.708;2023-07-13T05:15:29;95618.00;;;19.03;100.00
1832;BME280;1680;48.106;11.708;2023-07-13T05:17:56;95613.78;;;19.02;100.00
1832;BME280;1680;48.106;11.708;2023-07-13T05:20:24;95614.25;;;19.04;100.00
1832;BME280;1680;48.106;11.708;2023-07-13T05:22:52;95609.81;;;18.95;100.00
1832;BME280;1680;48.106;11.708;2023-07-13T05:25:19;95609.81;;;18.90;100.00
1832;BME280;1680;48.106;11.708;2023-07-13T05:27:47;95611.91;;;19.03;100.00
1832;BME280;1680;48.106;11.708;2023-07-13T05:30:14;95603.41;;;18.96;100.00
1832;BME280;1680;48.106;11.708;2023-07-13T05:32:42;95608.72;;;18.96;100.00
1832;BME280;1680;48.106;11.708;2023-07-13T05:35:09;95614.06;;;18.91;100.00
1832;BME280;1680;48.106;11.708;2023-07-13T05:37:37;95630.81;;;18.91;100.00
1832;BME280;1680;48.106;11.708;2023-07-13T05:40:07;95630.50;;;18.98;100.00
1832;BME280;1680;48.106;11.708;2023-07-13T05:42:34;95613.78;;;18.92;100.00
1832;BME280;1680;48.106;11.708;2023-07-13T05:45:02;95629.72;;;18.97;100.00
1832;BME280;1680;48.106;11.708;2023-07-13T05:47:29;95630.50;;;19.03;100.00
1832;BME280;1680;48.106;11.708;2023-07-13T05:49:56;95630.50;;;18.98;100.00
1832;BME280;1680;48.106;11.708;2023-07-13T05:52:24;95619.88;;;19.03;100.00
1832;BME280;1680;48.106;11.708;2023-07-13T05:54:51;95621.47;;;19.04;100.00
1832;BME280;1680;48.106;11.708;2023-07-13T05:57:19;95626.22;;;19.12;100.00
1832;BME280;1680;48.106;11.708;2023-07-13T05:59:47;95631.78;;;19.20;100.00
1832;BME280;1680;48.106;11.708;2023-07-13T06:02:14;95623.53;;;19.22;100.00
1832;BME280;1680;48.106;11.708;2023-07-13T06:04:41;95630.41;;;19.33;100.00
1832;BME280;1680;48.106;11.708;2023-07-13T06:07:09;95620.72;;;19.52;100.00
1832;BME280;1680;48.106;11.708;2023-07-13T06:09:36;95632.91;;;19.57;100.00
1832;BME280;1680;48.106;11.708;2023-07-13T06:12:05;95635.56;;;19.57;100.00
1832;BME280;1680;48.106;11.708;2023-07-13T06:14:33;95645.59;;;19.70;100.00
1832;BME280;1680;48.106;11.708;2023-07-13T06:17:00;95655.75;;;19.68;100.00
1832;BME280;1680;48.106;11.708;2023-07-13T06:19:28;95645.66;;;19.65;100.00
1832;BME280;1680;48.106;11.708;2023-07-13T06:21:55;95649.63;;;19.68;100.00
1832;BME280;1680;48.106;11.708;2023-07-13T06:24:24;95641.63;;;19.68;100.00
1832;BME280;1680;48.106;11.708;2023-07-13T06:26:55;95657.28;;;19.79;100.00
1832;BME280;1680;48.106;11.708;2023-07-13T06:29:22;95649.53;;;19.83;100.00
1832;BME280;1680;48.106;11.708;2023-07-13T06:31:51;95652.47;;;19.81;100.00
1832;BME280;1680;48.106;11.708;2023-07-13T06:34:18;95660.59;;;19.95;100.00
1832;BME280;1680;48.106;11.708;2023-07-13T06:36:45;95641.75;;;19.91;100.00
1832;BME280;1680;48.106;11.708;2023-07-13T06:39:12;95671.94;;;20.15;100.00
1832;BME280;1680;48.106;11.708;2023-07-13T06:41:39;95678.28;;;20.24;100.00
1832;BME280;1680;48.106;11.708;2023-07-13T06:44:09;95672.31;;;20.37;100.00
1832;BME280;1680;48.106;11.708;2023-07-13T06:46:36;95666.03;;;20.23;100.00
1832;BME280;1680;48.106;11.708;2023-07-13T06:49:04;95678.72;;;20.36;100.00
1832;BME280;1680;48.106;11.708;2023-07-13T06:51:34;95681.25;;;20.51;100.00
1832;BME280;1680;48.106;11.708;2023-07-13T06:54:02;95685.03;;;20.45;100.00
1832;BME280;1680;48.106;11.708;2023-07-13T06:56:33;95686.31;;;20.52;100.00
1832;BME280;1680;48.106;11.708;2023-07-13T06:59:00;95674.94;;;20.42;100.00
1832;BME280;1680;48.106;11.708;2023-07-13T07:01:29;95673.28;;;20.46;100.00
1832;BME280;1680;48.106;11.708;2023-07-13T07:03:56;95661.47;;;20.24;100.00
1832;BME280;1680;48.106;11.708;2023-07-13T07:06:26;95682.31;;;20.22;100.00
1832;BME280;1680;48.106;11.708;2023-07-13T07:08:53;95685.75;;;20.22;100.00
1832;BME280;1680;48.106;11.708;2023-07-13T07:11:22;95688.97;;;20.19;100.00
1832;BME280;1680;48.106;11.708;2023-07-13T07:13:50;95692.91;;;20.27;100.00
1832;BME280;1680;48.106;11.708;2023-07-13T07:16:18;95649.41;;;20.03;100.00
1832;BME280;1680;48.106;11.708;2023-07-13T07:18:46;95693.81;;;20.46;100.00
1832;BME280;1680;48.106;11.708;2023-07-13T07:21:14;95683.78;;;20.38;100.00
1832;BME280;1680;48.106;11.708;2023-07-13T07:23:43;95688.69;;;20.54;100.00
1832;BME280;1680;48.106;11.708;2023-07-13T07:26:10;95688.53;;;20.69;100.00
1832;BME280;1680;48.106;11.708;2023-07-13T07:28:37;95690.09;;;20.75;100.00
1832;BME280;1680;48.106;11.708;2023-07-13T07:31:04;95688.31;;;20.94;100.00
1832;BME280;1680;48.106;11.708;2023-07-13T07:33:32;95687.81;;;20.92;100.00
1832;BME280;1680;48.106;11.708;2023-07-13T07:36:00;95699.88;;;20.84;100.00
1832;BME280;1680;48.106;11.708;2023-07-13T07:38:27;95652.41;;;20.58;100.00
1832;BME280;1680;48.106;11.708;2023-07-13T07:40:56;95695.34;;;20.85;100.00
1832;BME280;1680;48.106;11.708;2023-07-13T07:43:24;95710.31;;;20.81;100.00
1832;BME280;1680;48.106;11.708;2023-07-13T07:45:51;95714.06;;;20.80;100.00
1832;BME280;1680;48.106;11.708;2023-07-13T07:48:18;95682.69;;;20.67;100.00
1832;BME280;1680;48.106;11.708;2023-07-13T07:50:48;95719.91;;;20.82;100.00
1832;BME280;1680;48.106;11.708;2023-07-13T07:53:17;95723.97;;;20.69;100.00
1832;BME280;1680;48.106;11.708;2023-07-13T07:55:45;95735.09;;;20.48;100.00
1832;BME280;1680;48.106;11.708;2023-07-13T07:58:14;95734.34;;;20.43;100.00
1832;BME280;1680;48.106;11.708;2023-07-13T08:00:41;95739.75;;;20.33;100.00
1832;BME280;1680;48.106;11.708;2023-07-13T08:03:08;95743.69;;;20.40;100.00
1832;BME280;1680;48.106;11.708;2023-07-13T08:05:36;95744.13;;;20.19;100.00
1832;BME280;1680;48.106;11.708;2023-07-13T08:08:03;95739.84;;;20.18;100.00
1832;BME280;1680;48.106;11.708;2023-07-13T08:10:31;95747.31;;;20.16;100.00
1832;BME280;1680;48.106;11.708;2023-07-13T08:12:58;95745.81;;;20.05;100.00
1832;BME280;1680;48.106;11.708;2023-07-13T08:15:26;95752.97;;;20.04;100.00
1832;BME280;1680;48.106;11.708;2023-07-13T08:17:54;95750.88;;;19.96;100.00
1832;BME280;1680;48.106;11.708;2023-07-13T08:20:21;95754.88;;;19.99;100.00
1832;BME280;1680;48.106;11.708;2023-07-13T08:22:49;95752.44;;;20.07;100.00
1832;BME280;1680;48.106;11.708;2023-07-13T08:25:16;95758.34;;;19.94;100.00
1832;BME280;1680;48.106;11.708;2023-07-13T08:27:43;95762.63;;;19.90;100.00
1832;BME280;1680;48.106;11.708;2023-07-13T08:30:13;95756.75;;;19.93;100.00
1832;BME280;1680;48.106;11.708;2023-07-13T08:32:41;95756.81;;;19.83;100.00
1832;BME280;1680;48.106;11.708;2023-07-13T08:35:09;95762.34;;;19.92;100.00
1832;BME280;1680;48.106;11.708;2023-07-13T08:37:36;95765.69;;;20.17;100.00
1832;BME280;1680;48.106;11.708;2023-07-13T08:40:04;95768.69;;;20.06;100.00
1832;BME280;1680;48.106;11.708;2023-07-13T08:42:36;95770.47;;;20.20;100.00
1832;BME280;1680;48.106;11.708;2023-07-13T08:45:13;95767.88;;;20.05;100.00
1832;BME280;1680;48.106;11.708;2023-07-13T08:47:46;95773.16;;;20.15;100.00
1832;BME280;1680;48.106;11.708;2023-07-13T08:50:17;95775.81;;;20.15;100.00
1832;BME280;1680;48.106;11.708;2023-07-13T08:52:46;95777.41;;;20.16;100.00
1832;BME280;1680;48.106;11.708;2023-07-13T08:55:16;95790.94;;;20.25;100.00
1832;BME280;1680;48.106;11.708;2023-07-13T08:57:48;95792.66;;;20.06;100.00
1832;BME280;1680;48.106;11.708;2023-07-13T09:00:18;95797.72;;;20.07;100.00
1832;BME280;1680;48.106;11.708;2023-07-13T09:02:54;95791.63;;;20.02;100.00
1832;BME280;1680;48.106;11.708;2023-07-13T09:05:28;95795.81;;;20.08;100.00
1832;BME280;1680;48.106;11.708;2023-07-13T09:08:26;95798.72;;;20.16;100.00
1832;BME280;1680;48.106;11.708;2023-07-13T09:11:01;95798.66;;;20.26;100.00
1832;BME280;1680;48.106;11.708;2023-07-13T09:13:46;95787.47;;;20.29;100.00
1832;BME280;1680;48.106;11.708;2023-07-13T09:16:19;95782.38;;;20.33;100.00
1832;BME280;1680;48.106;11.708;2023-07-13T09:18:50;95775.69;;;20.35;100.00
1832;BME280;1680;48.106;11.708;2023-07-13T09:21:24;95781.94;;;20.59;100.00
1832;BME280;1680;48.106;11.708;2023-07-13T09:23:58;95785.72;;;20.48;100.00
1832;BME280;1680;48.106;11.708;2023-07-13T09:26:28;95781.41;;;20.57;100.00
1832;BME280;1680;48.106;11.708;2023-07-13T09:28:58;95762.78;;;20.52;100.00
1832;BME280;1680;48.106;11.708;2023-07-13T09:31:35;95782.31;;;20.76;100.00
1832;BME280;1680;48.106;11.708;2023-07-13T09:34:08;95788.38;;;20.86;100.00
1832;BME280;1680;48.106;11.708;2023-07-13T09:36:36;95778.91;;;21.04;100.00
1832;BME280;1680;48.106;11.708;2023-07-13T09:39:19;95794.41;;;21.02;100.00
1832;BME280;1680;48.106;11.708;2023-07-13T09:41:54;95784.28;;;20.99;100.00
1832;BME280;1680;48.106;11.708;2023-07-13T09:44:28;95786.34;;;21.07;100.00
1832;BME280;1680;48.106;11.708;2023-07-13T09:46:58;95746.97;;;20.94;100.00
1832;BME280;1680;48.106;11.708;2023-07-13T09:49:28;95764.44;;;21.10;100.00
1832;BME280;1680;48.106;11.708;2023-07-13T09:52:00;95760.63;;;20.92;100.00
1832;BME280;1680;48.106;11.708;2023-07-13T09:54:27;95794.94;;;20.99;100.00
1832;BME280;1680;48.106;11.708;2023-07-13T09:56:55;95795.59;;;21.14;100.00
1832;BME280;1680;48.106;11.708;2023-07-13T09:59:26;95789.63;;;20.99;100.00
1832;BME280;1680;48.106;11.708;2023-07-13T10:01:54;95788.91;;;21.17;100.00
1832;BME280;1680;48.106;11.708;2023-07-13T10:04:33;95790.69;;;21.26;100.00
1832;BME280;1680;48.106;11.708;2023-07-13T10:07:08;95787.22;;;21.26;100.00
1832;BME280;1680;48.106;11.708;2023-07-13T10:09:36;95782.34;;;21.33;100.00
1832;BME280;1680;48.106;11.708;2023-07-13T10:12:04;95804.72;;;21.37;100.00
1832;BME280;1680;48.106;11.708;2023-07-13T10:14:42;95807.28;;;21.47;100.00
1832;BME280;1680;48.106;11.708;2023-07-13T10:17:12;95806.34;;;21.61;100.00
1832;BME280;1680;48.106;11.708;2023-07-13T10:19:42;95805.22;;;21.67;100.00
1832;BME280;1680;48.106;11.708;2023-07-13T10:22:18;95795.44;;;21.81;100.00
1832;BME280;1680;48.106;11.708;2023-07-13T10:24:48;95807.81;;;21.95;100.00
1832;BME280;1680;48.106;11.708;2023-07-13T10:27:18;95807.59;;;21.92;100.00
1832;BME280;1680;48.106;11.708;2023-07-13T10:29:48;95808.78;;;22.04;100.00
1832;BME280;1680;48.106;11.708;2023-07-13T10:32:19;95813.47;;;22.12;100.00
1832;BME280;1680;48.106;11.708;2023-07-13T10:34:51;95808.91;;;22.36;97.47
1832;BME280;1680;48.106;11.708;2023-07-13T10:37:23;95811.22;;;22.61;93.59
1832;BME280;1680;48.106;11.708;2023-07-13T10:39:54;95808.13;;;22.86;90.28
1832;BME280;1680;48.106;11.708;2023-07-13T10:42:28;95817.97;;;23.09;89.15
1832;BME280;1680;48.106;11.708;2023-07-13T10:44:56;95799.88;;;23.01;84.40
1832;BME280;1680;48.106;11.708;2023-07-13T10:47:24;95796.00;;;23.25;87.83
1832;BME280;1680;48.106;11.708;2023-07-13T10:49:55;95799.38;;;23.31;82.49
1832;BME280;1680;48.106;11.708;2023-07-13T10:52:44;95816.94;;;23.05;81.88
1832;BME280;1680;48.106;11.708;2023-07-13T10:55:32;95807.91;;;23.33;84.64
1832;BME280;1680;48.106;11.708;2023-07-13T10:58:02;95810.94;;;23.45;81.24
1832;BME280;1680;48.106;11.708;2023-07-13T11:00:31;95810.19;;;23.84;82.05
1832;BME280;1680;48.106;11.708;2023-07-13T11:03:00;95810.38;;;24.01;80.80
1832;BME280;1680;48.106;11.708;2023-07-13T11:05:32;95764.59;;;23.98;78.79
1832;BME280;1680;48.106;11.708;2023-07-13T11:08:12;95798.47;;;24.56;75.99
1832;BME280;1680;48.106;11.708;2023-07-13T11:10:48;95804.16;;;24.55;74.05
1832;BME280;1680;48.106;11.708;2023-07-13T11:13:56;95807.69;;;24.63;74.36
1832;BME280;1680;48.106;11.708;2023-07-13T11:16:36;95806.56;;;24.16;70.74
1832;BME280;1680;48.106;11.708;2023-07-13T11:19:29;95814.19;;;24.22;69.88
1832;BME280;1680;48.106;11.708;2023-07-13T11:22:19;95817.78;;;24.18;70.98
1832;BME280;1680;48.106;11.708;2023-07-13T11:24:56;95808.34;;;24.20;69.94
1832;BME280;1680;48.106;11.708;2023-07-13T11:27:37;95807.06;;;24.31;71.22
1832;BME280;1680;48.106;11.708;2023-07-13T11:30:34;95800.38;;;24.42;69.47
1832;BME280;1680;48.106;11.708;2023-07-13T11:33:17;95799.59;;;24.28;66.01
1832;BME280;1680;48.106;11.708;2023-07-13T11:35:50;95799.00;;;24.31;68.45
1832;BME280;1680;48.106;11.708;2023-07-13T11:38:22;95797.69;;;24.42;64.29
1832;BME280;1680;48.106;11.708;2023-07-13T11:40:53;95800.44;;;24.64;63.67
1832;BME280;1680;48.106;11.708;2023-07-13T11:43:21;95791.03;;;24.53;55.58
1832;BME280;1680;48.106;11.708;2023-07-13T11:45:50;95793.69;;;24.04;52.22
1832;BME280;1680;48.106;11.708;2023-07-13T11:48:22;95786.94;;;23.93;48.22
1832;BME280;1680;48.106;11.708;2023-07-13T11:50:52;95780.00;;;23.92;51.06
1832;BME280;1680;48.106;11.708;2023-07-13T11:53:26;95771.25;;;24.00;47.35
1832;BME280;1680;48.106;11.708;2023-07-13T11:55:54;95776.91;;;24.12;49.41
1832;BME280;1680;48.106;11.708;2023-07-13T11:58:24;95776.81;;;24.17;51.87
1832;BME280;1680;48.106;11.708;2023-07-13T12:00:55;95768.41;;;24.46;54.01
1832;BME280;1680;48.106;11.708;2023-07-13T12:03:26;95742.38;;;24.33;60.35
1832;BME280;1680;48.106;11.708;2023-07-13T12:06:02;95763.31;;;24.44;55.04
1832;BME280;1680;48.106;11.708;2023-07-13T12:08:38;95757.75;;;24.76;55.62
1832;BME280;1680;48.106;11.708;2023-07-13T12:11:14;95760.91;;;25.00;53.85
1832;BME280;1680;48.106;11.708;2023-07-13T12:13:43;95758.16;;;24.91;53.79
1832;BME280;1680;48.106;11.708;2023-07-13T12:16:14;95738.19;;;24.40;50.49
1832;BME280;1680;48.106;11.708;2023-07-13T12:18:43;95736.75;;;24.34;50.73
1832;BME280;1680;48.106;11.708;2023-07-13T12:21:17;95666.41;;;24.15;52.06
1832;BME280;1680;48.106;11.708;2023-07-13T12:23:48;95723.75;;;24.63;51.48
1832;BME280;1680;48.106;11.708;2023-07-13T12:26:17;95760.78;;;25.05;50.18
1832;BME280;1680;48.106;11.708;2023-07-13T12:28:47;95715.38;;;24.86;52.60
1832;BME280;1680;48.106;11.708;2023-07-13T12:31:30;95752.56;;;25.54;47.78
1832;BME280;1680;48.106;11.708;2023-07-13T12:34:00;95712.41;;;25.57;49.02
1832;BME280;1680;48.106;11.708;2023-07-13T12:36:31;95691.56;;;25.62;47.60
1832;BME280;1680;48.106;11.708;2023-07-13T12:39:10;95748.91;;;25.97;45.71
1832;BME280;1680;48.106;11.708;2023-07-13T12:41:39;95737.81;;;25.81;49.48
1832;BME280;1680;48.106;11.708;2023-07-13T12:44:10;95731.03;;;25.92;49.11
1832;BME280;1680;48.106;11.708;2023-07-13T12:46:38;95750.03;;;26.13;45.96
1832;BME280;1680;48.106;11.708;2023-07-13T12:49:07;95714.44;;;25.52;45.55
1832;BME280;1680;48.106;11.708;2023-07-13T12:51:36;95743.84;;;25.56;47.22
1832;BME280;1680;48.106;11.708;2023-07-13T12:54:16;95723.69;;;25.67;50.84
1832;BME280;1680;48.106;11.708;2023-07-13T12:56:44;95708.72;;;26.00;50.32
1832;BME280;1680;48.106;11.708;2023-07-13T12:59:20;95708.94;;;26.21;44.42
1832;BME280;1680;48.106;11.708;2023-07-13T13:01:48;95722.03;;;26.05;47.61
1832;BME280;1680;48.106;11.708;2023-07-13T13:04:17;95741.03;;;25.61;47.57
1832;BME280;1680;48.106;11.708;2023-07-13T13:06:46;95656.09;;;25.05;47.66
1832;BME280;1680;48.106;11.708;2023-07-13T13:09:16;95648.84;;;24.75;45.68
1832;BME280;1680;48.106;11.708;2023-07-13T13:11:45;95735.63;;;25.53;45.27
1832;BME280;1680;48.106;11.708;2023-07-13T13:14:13;95723.16;;;25.57;50.31
1832;BME280;1680;48.106;11.708;2023-07-13T13:16:46;95711.00;;;25.68;46.74